Time;durP1;ratioP1;P1;durP2;ratioP2;P2;SDS_P1;SDS_P2;PMS_P1;PMS_P2;Temp;Humidity;BMP_temperature;BMP_pressure;BME280_temperature;BME280_humidity;BME280_pressure;Samples;Min_cycle;Max_cycle;Signal;HPM_P1;HPM_P2
2022/02/13 00:00:53;;;;;;;11.23;5.60;;;;;;;-1.40;75.10;97125.50;2062222;28;20207;-68
2022/02/13 00:01:54;;;;;;;11.82;6.25;;;;;;;-1.31;75.13;97121.97;2061445;28;20193;-68
2022/02/13 00:02:56;;;;;;;13.88;5.72;;;;;;;-1.16;74.12;97113.19;2062368;28;20205;-68
2022/02/13 00:03:57;;;;;;;14.85;8.02;;;;;;;-1.24;74.61;97113.28;2062426;28;20209;-68
2022/02/13 00:04:59;;;;;;;15.50;6.13;;;;;;;-1.41;74.85;97105.81;2063309;28;20202;-69
2022/02/13 00:06:00;;;;;;;15.07;6.40;;;;;;;-1.37;74.90;97113.47;2064060;28;20208;-69
2022/02/13 00:07:02;;;;;;;13.32;6.53;;;;;;;-1.46;75.22;97096.47;2060550;28;20206;-69
2022/02/13 00:08:04;;;;;;;14.32;5.50;;;;;;;-1.37;74.92;97104.06;2066512;28;20202;-69
2022/02/13 00:09:06;;;;;;;15.70;6.00;;;;;;;-1.34;74.79;97103.16;2065408;28;20736;-69
2022/02/13 00:10:10;;;;;;;11.63;6.47;;;;;;;-1.35;74.85;97110.03;2064045;28;20212;-69
2022/02/13 00:11:12;;;;;;;11.63;6.40;;;;;;;-1.38;75.23;97112.63;2067494;28;20213;-69
2022/02/13 00:12:14;;;;;;;8.32;4.43;;;;;;;-1.21;74.63;97107.28;2063982;28;20705;-69
2022/02/13 00:13:15;;;;;;;11.13;5.80;;;;;;;-1.31;74.56;97091.13;2062221;28;20709;-70
2022/02/13 00:14:19;;;;;;;9.45;5.65;;;;;;;-1.30;74.89;97105.66;2062845;28;20220;-69
2022/02/13 00:15:21;;;;;;;9.55;6.10;;;;;;;-1.31;74.97;97098.00;2063227;28;20211;-69
2022/02/13 00:16:22;;;;;;;12.70;5.15;;;;;;;-1.22;74.91;97095.28;2063420;28;20208;-69
2022/02/13 00:17:24;;;;;;;6.90;4.80;;;;;;;-1.26;74.51;97089.31;2064069;28;20192;-69
2022/02/13 00:18:25;;;;;;;12.98;5.95;;;;;;;-1.31;74.43;97090.28;2063039;28;20217;-69
2022/02/13 00:19:27;;;;;;;18.90;7.93;;;;;;;-1.45;74.66;97073.34;2063109;28;20224;-70
2022/02/13 00:20:29;;;;;;;14.13;6.93;;;;;;;-1.39;74.80;97095.53;2063802;28;20240;-70
2022/02/13 00:21:31;;;;;;;23.80;9.48;;;;;;;-1.36;75.14;97092.91;2064003;28;20409;-70
2022/02/13 00:22:32;;;;;;;37.72;13.40;;;;;;;-1.38;74.94;97098.94;2062839;28;20216;-70
2022/02/13 00:23:34;;;;;;;26.63;11.20;;;;;;;-1.46;75.15;97092.16;2063214;28;20208;-70
2022/02/13 00:24:35;;;;;;;21.45;10.10;;;;;;;-1.44;75.26;97087.03;2061537;28;20714;-70
2022/02/13 00:25:37;;;;;;;21.30;9.85;;;;;;;-1.62;75.33;97067.56;2063227;28;20704;-69
2022/02/13 00:26:38;;;;;;;14.77;5.40;;;;;;;-1.60;75.34;97068.41;2055423;28;20206;-69
2022/02/13 00:27:40;;;;;;;16.17;7.22;;;;;;;-1.40;75.26;97097.22;2063067;28;20213;-69
2022/02/13 00:28:42;;;;;;;10.00;4.93;;;;;;;-1.33;74.84;97082.59;2062840;28;20210;-69
2022/02/13 00:29:44;;;;;;;10.77;5.55;;;;;;;-1.52;75.27;97066.56;2062670;28;20236;-70
2022/02/13 00:30:48;;;;;;;8.95;4.85;;;;;;;-1.38;75.44;97089.50;2061008;28;20203;-70
2022/02/13 00:31:49;;;;;;;9.43;5.35;;;;;;;-1.44;75.03;97075.00;2063315;28;20217;-70
2022/02/13 00:32:52;;;;;;;10.35;5.13;;;;;;;-1.42;75.24;97080.97;2062881;28;20403;-70
2022/02/13 00:33:53;;;;;;;9.57;5.20;;;;;;;-1.40;75.24;97075.81;2064346;28;20205;-69
2022/02/13 00:34:55;;;;;;;11.57;5.50;;;;;;;-1.41;75.76;97081.84;2067367;28;20198;-70
2022/02/13 00:35:56;;;;;;;10.05;5.05;;;;;;;-1.41;75.42;97085.25;2061508;28;20202;-70
2022/02/13 00:36:58;;;;;;;10.18;5.30;;;;;;;-1.45;75.55;97083.59;2060631;28;20610;-70
2022/02/13 00:38:00;;;;;;;8.57;5.05;;;;;;;-1.37;75.37;97083.50;2063644;28;20208;-70
2022/02/13 00:39:01;;;;;;;10.90;4.93;;;;;;;-1.40;75.47;97084.38;2062853;28;20217;-70
2022/02/13 00:40:04;;;;;;;13.35;5.20;;;;;;;-1.39;75.84;97077.53;2062203;28;20212;-70
2022/02/13 00:41:05;;;;;;;18.10;5.55;;;;;;;-1.42;75.91;97080.97;2062459;28;20203;-70
2022/02/13 00:42:07;;;;;;;8.60;5.20;;;;;;;-1.53;76.26;97075.16;2067356;28;20211;-70
2022/02/13 00:43:08;;;;;;;10.23;6.10;;;;;;;-1.51;76.19;97070.84;2065593;28;20200;-70
2022/02/13 00:44:10;;;;;;;12.05;5.43;;;;;;;-1.49;76.55;97073.38;2060497;28;20220;-70
2022/02/13 00:45:12;;;;;;;8.20;4.82;;;;;;;-1.62;76.83;97075.28;2063590;28;20667;-70
2022/02/13 00:46:14;;;;;;;16.75;6.43;;;;;;;-1.65;77.00;97065.88;2063650;28;20201;-70
2022/02/13 00:47:16;;;;;;;8.75;5.63;;;;;;;-1.59;76.59;97072.66;2063386;28;20197;-71
2022/02/13 00:48:17;;;;;;;8.32;5.38;;;;;;;-1.58;76.76;97081.22;2063012;28;20605;-70
2022/02/13 00:49:19;;;;;;;11.35;5.70;;;;;;;-1.59;77.10;97072.66;2062431;28;20235;-71
2022/02/13 00:50:20;;;;;;;12.63;5.97;;;;;;;-1.55;77.03;97079.44;2063077;28;20191;-71
2022/02/13 00:51:22;;;;;;;7.63;4.97;;;;;;;-1.61;76.67;97062.41;2062959;28;20209;-70
2022/02/13 00:52:24;;;;;;;10.05;5.60;;;;;;;-1.58;77.05;97076.94;2063580;28;20195;-71
2022/02/13 00:53:25;;;;;;;11.57;5.78;;;;;;;-1.86;77.10;97036.19;2063464;28;20546;-71
2022/02/13 00:54:27;;;;;;;12.32;5.30;;;;;;;-1.72;77.52;97058.28;2063135;28;20220;-71
2022/02/13 00:55:29;;;;;;;10.90;5.35;;;;;;;-1.66;77.35;97063.34;2062029;28;20224;-71
2022/02/13 00:56:30;;;;;;;9.73;5.35;;;;;;;-1.64;76.81;97049.59;2063250;28;20206;-71
2022/02/13 00:57:32;;;;;;;9.20;5.53;;;;;;;-1.51;76.75;97069.97;2063317;28;20215;-70
2022/02/13 00:58:35;;;;;;;8.93;5.25;;;;;;;-1.74;77.29;97065.16;2063483;28;20203;-71
2022/02/13 00:59:37;;;;;;;9.70;4.82;;;;;;;-1.64;77.25;97061.59;2061565;28;21065;-71
2022/02/13 01:00:38;;;;;;;9.57;6.18;;;;;;;-1.56;76.98;97069.22;2062909;28;20553;-70
2022/02/13 01:01:40;;;;;;;13.85;5.22;;;;;;;-1.56;76.87;97054.63;2062707;28;20635;-71
2022/02/13 01:02:42;;;;;;;9.25;5.25;;;;;;;-1.50;76.86;97064.81;2062801;28;20203;-71
2022/02/13 01:03:44;;;;;;;10.57;5.35;;;;;;;-1.53;76.63;97054.59;2055010;28;20210;-71
2022/02/13 01:04:46;;;;;;;16.30;5.63;;;;;;;-1.51;76.90;97065.72;2062569;28;20322;-71
2022/02/13 01:05:47;;;;;;;8.50;5.25;;;;;;;-1.60;76.91;97064.09;2063233;28;20243;-71
2022/02/13 01:06:49;;;;;;;10.85;4.90;;;;;;;-1.57;77.32;97060.63;2063693;28;20200;-71
2022/02/13 01:07:50;;;;;;;8.18;4.45;;;;;;;-1.84;76.93;97029.31;2061301;28;20214;-71
2022/02/13 01:08:52;;;;;;;11.07;4.50;;;;;;;-1.72;77.76;97055.72;2062079;28;20215;-71
2022/02/13 01:09:53;;;;;;;13.82;6.38;;;;;;;-1.72;77.56;97058.28;2063494;28;20238;-71
2022/02/13 01:10:55;;;;;;;11.52;4.90;;;;;;;-1.73;77.74;97052.28;2062876;28;20203;-71
2022/02/13 01:11:57;;;;;;;13.52;4.68;;;;;;;-1.86;78.10;97056.72;2061477;28;20192;-72
2022/02/13 01:13:01;;;;;;;10.07;5.55;;;;;;;-1.81;77.95;97054.09;2062607;28;20214;-71
2022/02/13 01:14:03;;;;;;;9.68;5.20;;;;;;;-1.67;77.97;97053.91;2063143;28;20214;-71
2022/02/13 01:15:05;;;;;;;14.90;6.35;;;;;;;-1.71;77.92;97054.84;2063321;28;20234;-71
2022/02/13 01:16:06;;;;;;;9.32;5.50;;;;;;;-1.71;77.68;97047.13;2063619;28;20206;-71
2022/02/13 01:17:08;;;;;;;9.27;5.95;;;;;;;-1.62;77.84;97049.59;2062177;28;20199;-72
2022/02/13 01:18:11;;;;;;;10.02;5.20;;;;;;;-1.61;77.71;97043.56;2062628;28;20196;-72
2022/02/13 01:19:13;;;;;;;8.60;4.85;;;;;;;-1.58;77.29;97047.81;2062351;28;20215;-72
2022/02/13 01:20:14;;;;;;;12.63;4.65;;;;;;;-1.72;77.94;97037.75;2063235;28;20198;-72
2022/02/13 01:21:16;;;;;;;6.85;4.72;;;;;;;-1.86;78.15;97022.47;2063593;28;20195;-72
2022/02/13 01:22:17;;;;;;;9.82;5.38;;;;;;;-1.67;78.14;97048.78;2060260;28;20608;-72
2022/02/13 01:23:19;;;;;;;11.18;5.00;;;;;;;-1.75;78.00;97037.75;2061243;28;20206;-72
2022/02/13 01:24:21;;;;;;;10.52;5.05;;;;;;;-1.79;78.36;97035.22;2062466;28;20229;-72
2022/02/13 01:25:22;;;;;;;8.35;4.50;;;;;;;-1.92;78.62;97020.00;2062692;28;20732;-73
2022/02/13 01:26:24;;;;;;;14.52;4.50;;;;;;;-1.60;77.76;97052.97;2063598;28;20202;-72
2022/02/13 01:27:26;;;;;;;8.95;4.40;;;;;;;-1.62;77.90;97044.44;2063581;28;20213;-72
2022/02/13 01:28:27;;;;;;;6.90;4.20;;;;;;;-1.56;77.45;97048.66;2061920;28;20349;-73
2022/02/13 01:29:29;;;;;;;11.00;4.30;;;;;;;-1.55;77.29;97040.06;2065935;28;20271;-73
2022/02/13 01:30:32;;;;;;;11.55;4.18;;;;;;;-1.43;77.29;97051.03;2065869;28;20725;-73
2022/02/13 01:31:36;;;;;;;11.70;5.30;;;;;;;-1.46;77.00;97060.50;2062205;28;20211;-73
2022/02/13 01:32:38;;;;;;;6.15;3.45;;;;;;;-1.67;77.48;97038.50;2063546;28;20219;-73
2022/02/13 01:33:40;;;;;;;8.88;3.92;;;;;;;-1.51;77.02;97052.00;2063441;28;20207;-73
2022/02/13 01:34:41;;;;;;;10.00;4.75;;;;;;;-1.64;78.09;97053.91;2062393;28;20227;-73
2022/02/13 01:35:43;;;;;;;9.05;3.95;;;;;;;-1.61;77.66;97057.28;2062328;28;20211;-73
2022/02/13 01:36:46;;;;;;;7.22;4.43;;;;;;;-1.66;77.87;97047.94;2068848;28;20211;-73
2022/02/13 01:37:48;;;;;;;11.10;5.10;;;;;;;-1.63;77.94;97047.88;2063057;28;20214;-68
2022/02/13 01:38:49;;;;;;;7.88;4.70;;;;;;;-1.41;77.20;97046.72;2062829;28;20204;-68
2022/02/13 01:39:51;;;;;;;6.20;4.00;;;;;;;-1.44;77.31;97049.31;2062040;28;20200;-68
2022/02/13 01:40:53;;;;;;;9.00;4.22;;;;;;;-1.42;77.30;97055.28;2062909;28;20212;-68
2022/02/13 01:41:55;;;;;;;7.88;4.25;;;;;;;-1.41;77.40;97048.44;2062799;28;20259;-68
2022/02/13 01:42:56;;;;;;;10.15;4.90;;;;;;;-1.38;77.32;97048.38;2060556;28;20312;-68
2022/02/13 01:43:58;;;;;;;8.25;4.20;;;;;;;-1.33;77.21;97048.31;2062421;28;20200;-68
2022/02/13 01:44:59;;;;;;;9.70;4.97;;;;;;;-1.38;77.26;97055.25;2062906;28;20226;-68
2022/02/13 01:46:01;;;;;;;13.18;5.50;;;;;;;-1.61;77.64;97041.88;2062442;28;20574;-68
2022/02/13 01:47:04;;;;;;;8.50;4.88;;;;;;;-1.58;78.04;97047.81;2062664;28;20205;-69
2022/02/13 01:48:08;;;;;;;9.15;5.40;;;;;;;-1.74;78.54;97031.78;2063057;28;20207;-68
2022/02/13 01:49:10;;;;;;;9.52;4.80;;;;;;;-1.65;78.06;97027.34;2062914;28;20221;-69
2022/02/13 01:50:11;;;;;;;7.72;4.60;;;;;;;-1.57;77.75;97042.66;2063154;28;20208;-69
2022/02/13 01:51:13;;;;;;;8.98;5.35;;;;;;;-1.50;77.79;97044.28;2063410;28;20208;-69
2022/02/13 01:52:21;;;;;;;14.25;5.13;;;;;;;-1.59;77.78;97046.97;2063412;28;20249;-69
2022/02/13 01:53:24;;;;;;;12.88;4.85;;;;;;;-1.65;78.31;97039.34;2063438;28;20195;-68
2022/02/13 01:54:26;;;;;;;10.57;4.63;;;;;;;-1.49;78.28;97050.25;2061243;28;20639;-68
2022/02/13 01:55:27;;;;;;;11.77;4.88;;;;;;;-1.45;77.82;97042.50;2063182;28;20211;-68
2022/02/13 01:56:29;;;;;;;7.18;3.85;;;;;;;-1.49;77.68;97051.13;2063505;28;20207;-69
2022/02/13 01:57:30;;;;;;;12.00;5.75;;;;;;;-1.65;78.09;97031.63;2060564;28;20206;-68
2022/02/13 01:58:32;;;;;;;13.93;5.03;;;;;;;-1.57;78.50;97042.66;2061621;28;20207;-69
2022/02/13 01:59:34;;;;;;;9.98;4.65;;;;;;;-1.54;78.48;97042.63;2062251;28;20257;-68
2022/02/13 02:00:36;;;;;;;17.00;4.88;;;;;;;-1.58;78.49;97033.25;2063507;28;20196;-68
2022/02/13 02:01:38;;;;;;;8.57;5.50;;;;;;;-1.64;78.92;97036.75;2063085;28;20685;-69
2022/02/13 02:02:39;;;;;;;8.07;4.85;;;;;;;-1.65;79.01;97034.19;2066654;28;20198;-69
2022/02/13 02:03:41;;;;;;;14.75;5.10;;;;;;;-1.65;79.01;97039.34;2067157;28;20206;-69
2022/02/13 02:04:42;;;;;;;7.45;4.97;;;;;;;-1.67;79.06;97043.66;2061633;28;20225;-69
2022/02/13 02:05:44;;;;;;;8.20;4.82;;;;;;;-1.68;79.03;97029.97;2063428;28;20550;-69
2022/02/13 02:06:45;;;;;;;10.07;5.60;;;;;;;-1.64;79.30;97031.63;2062669;28;20203;-69
2022/02/13 02:07:47;;;;;;;9.93;4.45;;;;;;;-1.82;79.55;97001.91;2062655;28;20199;-70
2022/02/13 02:08:49;;;;;;;10.10;5.32;;;;;;;-1.66;79.15;97028.22;2061066;28;20671;-69
2022/02/13 02:09:52;;;;;;;9.63;4.93;;;;;;;-1.60;79.01;97029.88;2059345;28;20644;-69
2022/02/13 02:10:54;;;;;;;9.57;4.93;;;;;;;-1.58;78.96;97037.56;2060487;28;20212;-69
2022/02/13 02:11:56;;;;;;;9.98;4.70;;;;;;;-1.73;79.24;97012.91;2061484;28;20250;-69
2022/02/13 02:12:57;;;;;;;9.15;5.45;;;;;;;-1.60;79.11;97032.44;2062449;28;20206;-69
2022/02/13 02:13:59;;;;;;;6.82;3.80;;;;;;;-1.54;79.24;97034.06;2062747;28;20204;-69
2022/02/13 02:15:01;;;;;;;8.38;4.97;;;;;;;-1.49;78.84;97040.84;2062634;28;20202;-69
2022/02/13 02:16:02;;;;;;;9.25;4.55;;;;;;;-1.41;78.44;97039.00;2062772;28;20208;-69
2022/02/13 02:17:04;;;;;;;10.77;4.60;;;;;;;-1.47;78.72;97031.41;2063434;28;20207;-69
2022/02/13 02:18:05;;;;;;;6.95;4.30;;;;;;;-1.41;78.80;97039.00;2062533;28;20204;-69
2022/02/13 02:19:09;;;;;;;15.65;4.85;;;;;;;-1.37;78.65;97036.38;2062452;28;20728;-69
2022/02/13 02:20:12;;;;;;;9.57;4.85;;;;;;;-1.43;78.61;97025.34;2063461;28;20207;-69
2022/02/13 02:21:14;;;;;;;7.13;4.50;;;;;;;-1.49;78.59;97030.56;2063483;28;20656;-69
2022/02/13 02:22:18;;;;;;;11.32;5.10;;;;;;;-1.44;78.82;97033.91;2062799;28;20633;-69
2022/02/13 02:23:20;;;;;;;7.20;3.90;;;;;;;-1.47;78.77;97018.53;2062419;28;20200;-69
2022/02/13 02:24:21;;;;;;;12.65;4.30;;;;;;;-1.35;78.47;97034.63;2064156;28;20227;-69
2022/02/13 02:25:23;;;;;;;15.35;4.75;;;;;;;-1.38;78.42;97029.56;2064932;28;20200;-69
2022/02/13 02:26:24;;;;;;;6.03;3.92;;;;;;;-1.30;78.37;97025.16;2064672;28;20231;-69
2022/02/13 02:27:26;;;;;;;10.32;4.90;;;;;;;-1.33;78.42;97031.19;2064501;28;20615;-69
2022/02/13 02:28:28;;;;;;;9.38;4.55;;;;;;;-1.35;78.50;97021.78;2064487;28;20298;-69
2022/02/13 02:29:30;;;;;;;7.32;4.60;;;;;;;-1.36;78.46;97023.50;2064243;28;20699;-69
2022/02/13 02:30:32;;;;;;;9.70;4.60;;;;;;;-1.33;78.74;97025.19;2064769;28;20215;-69
2022/02/13 02:31:33;;;;;;;6.32;4.35;;;;;;;-1.41;78.71;97004.75;2064166;28;20335;-69
2022/02/13 02:32:35;;;;;;;9.63;4.15;;;;;;;-1.35;78.18;97012.38;2063988;28;20211;-69
2022/02/13 02:33:37;;;;;;;10.35;3.78;;;;;;;-1.27;78.46;97018.25;2064474;28;20204;-69
2022/02/13 02:34:39;;;;;;;9.68;4.15;;;;;;;-1.35;78.84;97021.78;2064132;28;20224;-69
2022/02/13 02:35:41;;;;;;;6.80;3.63;;;;;;;-1.35;78.95;97009.81;2064678;28;20241;-69
2022/02/13 02:36:42;;;;;;;8.65;3.80;;;;;;;-1.19;78.51;97018.13;2064820;28;20195;-69
2022/02/13 02:37:44;;;;;;;8.60;3.78;;;;;;;-1.00;77.79;97023.81;2064758;28;20656;-69
2022/02/13 02:38:46;;;;;;;11.43;4.25;;;;;;;-0.93;77.06;97022.00;2063482;28;20200;-69
2022/02/13 02:39:48;;;;;;;8.02;3.50;;;;;;;-1.07;77.33;97012.78;2063862;28;20202;-69
2022/02/13 02:40:50;;;;;;;11.77;3.75;;;;;;;-1.08;77.33;97005.09;2064275;28;20204;-69
2022/02/13 02:41:51;;;;;;;5.65;3.28;;;;;;;-1.11;77.83;97021.44;2064193;28;20644;-69
2022/02/13 02:42:53;;;;;;;4.80;3.03;;;;;;;-1.28;78.07;96990.84;2064370;28;20806;-69
2022/02/13 02:43:54;;;;;;;9.27;4.43;;;;;;;-1.06;78.11;97024.78;2064035;28;20595;-69
2022/02/13 02:44:56;;;;;;;8.55;3.88;;;;;;;-1.00;77.71;97022.09;2064449;28;20198;-69
2022/02/13 02:45:57;;;;;;;12.90;4.70;;;;;;;-1.03;77.86;97018.72;2062974;28;20200;-69
2022/02/13 02:46:59;;;;;;;8.25;3.83;;;;;;;-1.04;77.22;96999.03;2064753;28;20197;-69
2022/02/13 02:48:00;;;;;;;10.82;4.05;;;;;;;-0.94;77.13;97020.28;2064239;28;20204;-69
2022/02/13 02:49:02;;;;;;;8.23;3.78;;;;;;;-0.98;77.46;97006.66;2063982;28;20221;-69
2022/02/13 02:50:04;;;;;;;9.15;4.20;;;;;;;-1.02;77.56;97023.84;2063991;28;20200;-69
2022/02/13 02:51:06;;;;;;;11.80;4.00;;;;;;;-0.95;77.28;97018.59;2063947;28;20197;-69
2022/02/13 02:52:07;;;;;;;13.00;4.57;;;;;;;-0.96;77.36;97014.31;2064903;28;20233;-69
2022/02/13 02:53:09;;;;;;;9.32;4.13;;;;;;;-1.14;77.73;97000.88;2064703;28;20220;-69
2022/02/13 02:54:10;;;;;;;7.53;3.83;;;;;;;-1.15;78.30;97008.66;2063272;28;20241;-69
2022/02/13 02:55:12;;;;;;;9.32;4.55;;;;;;;-1.28;77.85;96977.13;2064445;28;20459;-69
2022/02/13 02:56:14;;;;;;;7.13;3.65;;;;;;;-1.03;78.15;97011.84;2064535;28;20569;-69
2022/02/13 02:57:16;;;;;;;13.07;4.55;;;;;;;-1.09;78.18;97006.81;2064284;28;20196;-67
2022/02/13 02:58:18;;;;;;;9.23;4.13;;;;;;;-1.76;78.08;96897.38;2055908;28;20232;-69
2022/02/13 02:59:19;;;;;;;6.97;3.95;;;;;;;-1.05;77.99;96995.59;2055215;28;20230;-68
2022/02/13 03:00:20;;;;;;;8.93;3.75;;;;;;;-1.11;78.20;97000.84;2063844;28;20199;-68
2022/02/13 03:01:22;;;;;;;5.90;3.72;;;;;;;-1.02;78.19;96989.56;2063784;28;20209;-68
2022/02/13 03:02:24;;;;;;;9.73;3.53;;;;;;;-1.03;77.92;96996.44;2063375;28;20202;-68
2022/02/13 03:03:26;;;;;;;13.70;4.20;;;;;;;-1.04;77.97;96988.75;2063963;28;20558;-69
2022/02/13 03:04:28;;;;;;;8.75;3.58;;;;;;;-1.04;78.67;96999.03;2063970;28;20228;-68
2022/02/13 03:05:31;;;;;;;7.78;4.10;;;;;;;-0.91;78.06;96997.94;2064681;28;20244;-69
2022/02/13 03:06:33;;;;;;;6.80;4.10;;;;;;;-1.08;78.26;96984.53;2064105;28;20202;-68
2022/02/13 03:07:34;;;;;;;5.88;3.88;;;;;;;-1.15;78.89;96994.06;2063878;28;20220;-68
2022/02/13 03:08:36;;;;;;;8.70;3.83;;;;;;;-1.23;78.98;96983.91;2064303;28;20209;-68
2022/02/13 03:09:37;;;;;;;13.18;4.00;;;;;;;-1.39;79.02;96943.91;2063891;28;20232;-68
2022/02/13 03:10:39;;;;;;;7.15;3.70;;;;;;;-1.12;78.70;96982.88;2064451;28;20580;-68
2022/02/13 03:11:40;;;;;;;8.85;4.68;;;;;;;-1.27;78.76;96963.44;2064671;28;20201;-69
2022/02/13 03:12:42;;;;;;;6.82;3.40;;;;;;;-1.26;78.88;96955.66;2064063;28;20553;-68
2022/02/13 03:13:44;;;;;;;9.45;4.40;;;;;;;-1.03;78.47;96981.00;2063649;28;20213;-68
2022/02/13 03:14:46;;;;;;;7.78;4.25;;;;;;;-0.96;78.73;96988.59;2063739;28;20229;-68
2022/02/13 03:15:51;;;;;;;10.88;3.35;;;;;;;-0.89;78.66;96985.06;2064360;28;20208;-69
2022/02/13 03:16:53;;;;;;;6.95;4.10;;;;;;;-0.81;78.24;96981.47;2064546;28;20201;-68
2022/02/13 03:17:54;;;;;;;8.15;3.70;;;;;;;-0.79;78.12;96989.19;2062602;28;20206;-68
2022/02/13 03:18:56;;;;;;;7.80;4.35;;;;;;;-0.89;78.31;96980.78;2063708;28;20209;-68
2022/02/13 03:19:57;;;;;;;7.28;4.03;;;;;;;-0.88;78.26;96985.06;2063306;28;20200;-68
2022/02/13 03:20:59;;;;;;;10.30;4.13;;;;;;;-1.00;77.71;96962.97;2063888;28;20226;-68
2022/02/13 03:22:01;;;;;;;8.63;3.55;;;;;;;-0.96;78.11;96968.91;2063552;28;20201;-68
2022/02/13 03:23:02;;;;;;;8.25;4.05;;;;;;;-0.89;78.54;96987.66;2064424;28;20216;-68
2022/02/13 03:24:07;;;;;;;5.82;4.00;;;;;;;-0.83;77.96;96985.81;2062085;28;20194;-68
2022/02/13 03:25:09;;;;;;;7.30;3.45;;;;;;;-0.87;77.98;96979.00;2062336;28;20251;-68
2022/02/13 03:26:10;;;;;;;6.70;3.47;;;;;;;-0.96;78.33;96984.34;2063350;28;20653;-68
2022/02/13 03:27:12;;;;;;;9.70;3.60;;;;;;;-0.88;78.40;96981.59;2069603;28;20208;-69
2022/02/13 03:28:14;;;;;;;13.90;4.90;;;;;;;-0.97;78.69;96981.78;2067210;28;20210;-69
2022/02/13 03:29:16;;;;;;;10.07;4.78;;;;;;;-0.91;78.75;96982.53;2063199;28;20225;-68
2022/02/13 03:30:17;;;;;;;8.30;3.85;;;;;;;-0.93;78.87;96980.84;2063772;28;20202;-68
2022/02/13 03:31:19;;;;;;;9.13;3.30;;;;;;;-1.02;78.71;96959.56;2064491;28;20213;-68
2022/02/13 03:32:21;;;;;;;7.82;3.38;;;;;;;-0.78;78.25;96979.72;2064233;28;20221;-68
2022/02/13 03:33:23;;;;;;;8.18;3.47;;;;;;;-0.78;78.06;96972.88;2063280;28;20239;-68
2022/02/13 03:34:24;;;;;;;6.60;4.03;;;;;;;-0.83;78.54;96979.81;2059271;28;20220;-68
2022/02/13 03:35:26;;;;;;;8.35;4.20;;;;;;;-0.91;78.64;96979.09;2064114;28;20498;-69
2022/02/13 03:36:27;;;;;;;9.15;3.92;;;;;;;-1.00;78.81;96955.25;2061963;28;20204;-68
2022/02/13 03:37:29;;;;;;;11.48;4.20;;;;;;;-0.74;78.54;96971.94;2063654;28;20205;-68
2022/02/13 03:38:30;;;;;;;7.82;3.70;;;;;;;-0.82;78.08;96976.38;2064389;28;20209;-69
2022/02/13 03:39:32;;;;;;;5.38;3.65;;;;;;;-0.82;78.70;96968.66;2063771;28;20232;-68
2022/02/13 03:40:34;;;;;;;12.18;3.30;;;;;;;-0.90;78.40;96960.22;2063983;28;20201;-68
2022/02/13 03:41:35;;;;;;;7.13;3.88;;;;;;;-0.76;78.09;96971.13;2063983;28;20215;-68
2022/02/13 03:42:37;;;;;;;8.43;4.22;;;;;;;-0.85;78.58;96973.84;2063616;28;20209;-68
2022/02/13 03:43:38;;;;;;;11.27;4.32;;;;;;;-0.88;78.61;96973.91;2061436;28;20208;-67
2022/02/13 03:44:42;;;;;;;7.72;3.67;;;;;;;-0.88;78.88;96969.63;2061163;28;20224;-68
2022/02/13 03:45:44;;;;;;;6.05;3.20;;;;;;;-0.82;78.59;96973.81;2062549;28;20204;-68
2022/02/13 03:46:45;;;;;;;7.45;4.28;;;;;;;-0.82;78.69;96968.66;2063542;28;20205;-68
2022/02/13 03:47:47;;;;;;;6.75;3.65;;;;;;;-0.62;78.76;96970.88;2063118;28;20326;-68
2022/02/13 03:48:49;;;;;;;6.88;3.90;;;;;;;-0.69;78.17;96953.84;2063353;28;20533;-68
2022/02/13 03:49:50;;;;;;;6.30;3.83;;;;;;;-0.68;77.97;96945.25;2064020;28;20221;-68
2022/02/13 03:50:52;;;;;;;7.72;3.97;;;;;;;-0.57;77.68;96968.19;2061481;28;20199;-68
2022/02/13 03:51:53;;;;;;;8.38;3.88;;;;;;;-0.56;77.98;96973.31;2063302;28;20709;-68
2022/02/13 03:52:55;;;;;;;13.35;2.95;;;;;;;-0.60;77.93;96958.81;2064086;28;20225;-68
2022/02/13 03:53:56;;;;;;;6.43;3.25;;;;;;;-0.56;77.75;96969.91;2062726;28;20648;-68
2022/02/13 03:55:00;;;;;;;12.02;4.00;;;;;;;-0.50;77.89;96962.06;2061414;28;20905;-68
2022/02/13 03:56:01;;;;;;;6.18;3.40;;;;;;;-0.53;77.76;96968.13;2062775;28;20611;-68
2022/02/13 03:57:03;;;;;;;6.38;3.80;;;;;;;-0.54;77.71;96963.00;2062866;28;20227;-68
2022/02/13 03:58:05;;;;;;;11.93;4.10;;;;;;;-0.51;77.73;96971.53;2062824;28;20254;-68
2022/02/13 03:59:06;;;;;;;6.25;3.90;;;;;;;-0.68;77.81;96948.69;2063642;28;20236;-68
2022/02/13 04:00:08;;;;;;;5.82;3.35;;;;;;;-0.79;77.85;96935.16;2068052;28;20197;-68
2022/02/13 04:01:10;;;;;;;10.38;4.97;;;;;;;-0.69;78.55;96964.97;2067546;28;20205;-68
2022/02/13 04:02:11;;;;;;;12.00;3.80;;;;;;;-0.75;78.20;96951.38;2063108;28;20210;-68
2022/02/13 04:03:13;;;;;;;8.23;4.03;;;;;;;-0.64;78.02;96964.91;2062575;28;20201;-68
2022/02/13 04:04:15;;;;;;;13.48;3.53;;;;;;;-0.57;78.21;96970.78;2062976;28;20233;-68
2022/02/13 04:05:16;;;;;;;10.18;4.53;;;;;;;-0.61;78.44;96972.56;2063284;28;20202;-68
2022/02/13 04:06:18;;;;;;;8.05;3.55;;;;;;;-0.66;78.34;96962.34;2063078;28;20212;-68
2022/02/13 04:07:19;;;;;;;6.47;4.15;;;;;;;-0.61;78.68;96963.13;2063867;28;20211;-68
2022/02/13 04:08:22;;;;;;;7.38;3.60;;;;;;;-0.39;77.95;96965.31;2068425;28;20206;-68
2022/02/13 04:09:24;;;;;;;6.43;3.78;;;;;;;-0.35;77.84;96956.63;2070411;28;20244;-68
2022/02/13 04:10:25;;;;;;;6.53;4.13;;;;;;;-0.38;77.70;96963.56;2063380;28;20218;-68
2022/02/13 04:11:27;;;;;;;6.78;4.18;;;;;;;-0.32;77.69;96968.59;2063295;28;20256;-68
2022/02/13 04:12:28;;;;;;;7.63;3.42;;;;;;;-0.21;77.13;96971.81;2062800;28;20201;-68
2022/02/13 04:13:30;;;;;;;9.43;3.55;;;;;;;-0.14;77.63;96969.94;2063654;28;20197;-68
2022/02/13 04:14:31;;;;;;;10.70;4.68;;;;;;;-0.20;77.21;96968.34;2061469;28;20225;-68
2022/02/13 04:15:33;;;;;;;10.38;4.45;;;;;;;-0.25;77.51;96971.00;2063205;28;20199;-68
2022/02/13 04:16:34;;;;;;;11.63;3.80;;;;;;;-0.23;77.39;96973.56;2063270;28;20206;-68
2022/02/13 04:17:36;;;;;;;9.00;4.32;;;;;;;-0.28;77.42;96975.38;2063257;28;20736;-68
2022/02/13 04:18:37;;;;;;;7.95;3.67;;;;;;;-0.18;77.35;96968.31;2063951;28;20265;-68
2022/02/13 04:19:38;;;;;;;13.07;3.95;;;;;;;-0.14;77.10;96969.94;2063517;28;20224;-68
2022/02/13 04:20:41;;;;;;;6.65;3.20;;;;;;;-0.11;77.00;96968.16;2064134;28;20212;-68
2022/02/13 04:21:42;;;;;;;12.88;3.97;;;;;;;-0.05;76.62;96977.47;2063527;28;20198;-68
2022/02/13 04:22:44;;;;;;;11.85;4.05;;;;;;;0.00;76.68;96978.25;2059820;28;20202;-68
2022/02/13 04:23:45;;;;;;;7.38;3.50;;;;;;;-0.18;76.39;96952.88;2060081;28;20198;-68
2022/02/13 04:24:47;;;;;;;10.45;3.90;;;;;;;-0.13;76.82;96976.81;2061965;28;20531;-68
2022/02/13 04:25:48;;;;;;;8.70;3.97;;;;;;;-0.34;76.77;96944.59;2063204;28;20203;-68
2022/02/13 04:26:50;;;;;;;7.38;4.22;;;;;;;-0.14;76.67;96975.09;2063804;28;20195;-68
2022/02/13 04:27:54;;;;;;;7.50;3.53;;;;;;;-0.08;76.83;96985.25;2062709;28;20284;-68
2022/02/13 04:28:55;;;;;;;9.63;3.58;;;;;;;-0.16;77.20;96984.56;2063159;28;20225;-68
2022/02/13 04:29:57;;;;;;;7.25;3.65;;;;;;;-0.11;76.87;96977.63;2062825;28;20545;-68
2022/02/13 04:30:58;;;;;;;15.45;4.20;;;;;;;-0.12;76.77;96983.63;2063110;28;20210;-68
2022/02/13 04:32:00;;;;;;;8.55;4.65;;;;;;;-0.13;76.76;96977.63;2063182;28;20669;-68
2022/02/13 04:33:01;;;;;;;7.50;4.07;;;;;;;-0.15;77.15;96978.56;2063427;28;20205;-68
2022/02/13 04:34:07;;;;;;;16.17;4.95;;;;;;;-0.17;77.28;96975.16;2061762;28;20646;-68
2022/02/13 04:35:09;;;;;;;9.35;3.55;;;;;;;-0.19;77.29;96980.34;2063240;28;20538;-68
2022/02/13 04:36:10;;;;;;;6.50;3.45;;;;;;;-0.24;77.37;96980.41;2055157;28;20198;-68
2022/02/13 04:37:13;;;;;;;7.97;3.85;;;;;;;-0.24;77.43;96983.00;2060612;28;20212;-68
2022/02/13 04:38:15;;;;;;;12.15;4.00;;;;;;;-0.27;77.40;96977.91;2062333;28;20202;-68
2022/02/13 04:39:17;;;;;;;5.10;2.95;;;;;;;-0.47;77.87;96965.44;2063290;28;20224;-68
2022/02/13 04:40:19;;;;;;;8.30;4.07;;;;;;;-0.38;77.58;96958.41;2064179;28;20673;-68
2022/02/13 04:41:21;;;;;;;9.52;3.85;;;;;;;-0.31;77.94;96976.28;2063233;28;20201;-68
2022/02/13 04:42:23;;;;;;;7.32;3.58;;;;;;;-0.26;77.95;96968.47;2066881;28;20202;-68
2022/02/13 04:43:24;;;;;;;10.43;4.20;;;;;;;-0.23;77.97;96971.81;2065808;28;20198;-68
2022/02/13 04:44:26;;;;;;;10.30;3.53;;;;;;;-0.25;77.70;96972.75;2062702;28;20233;-67
2022/02/13 04:45:28;;;;;;;8.43;3.28;;;;;;;-0.41;77.90;96967.06;2063974;28;20706;-68
2022/02/13 04:46:29;;;;;;;6.80;3.58;;;;;;;-0.51;78.09;96971.53;2064002;28;20671;-68
2022/02/13 04:47:31;;;;;;;7.68;3.65;;;;;;;-0.51;78.71;96968.97;2063394;28;20197;-68
2022/02/13 04:48:32;;;;;;;8.68;3.40;;;;;;;-0.62;78.19;96958.84;2062215;28;20500;-68
2022/02/13 04:49:34;;;;;;;11.52;3.88;;;;;;;-0.56;78.54;96977.63;2062506;28;20227;-68